createdAt,value
2022-08-27T00:00:56.351Z,16.56
2022-08-27T00:03:42.019Z,16.44
2022-08-27T00:06:27.496Z,16.56
2022-08-27T00:09:12.763Z,16.51
2022-08-27T00:11:58.847Z,16.41
2022-08-27T00:14:44.396Z,16.41
2022-08-27T00:17:29.504Z,16.52
2022-08-27T00:20:18.015Z,16.46
2022-08-27T00:23:03.341Z,16.20
2022-08-27T00:25:48.590Z,16.10
2022-08-27T00:28:35.026Z,16.01
2022-08-27T00:31:20.295Z,16.01
2022-08-27T00:34:13.101Z,15.99
2022-08-27T00:36:58.418Z,15.96
2022-08-27T00:39:43.694Z,15.95
2022-08-27T00:42:29.499Z,15.92
2022-08-27T00:45:19.864Z,16.01
2022-08-27T00:48:08.969Z,15.88
2022-08-27T00:50:55.522Z,15.81
2022-08-27T00:53:41.345Z,15.86
2022-08-27T00:56:31.846Z,15.88
2022-08-27T00:59:18.152Z,15.75
2022-08-27T01:02:18.773Z,15.68
2022-08-27T01:05:11.405Z,15.66
2022-08-27T01:08:02.023Z,15.61
2022-08-27T01:10:48.673Z,15.45
2022-08-27T01:13:42.130Z,15.40
2022-08-27T01:16:45.805Z,15.37
2022-08-27T01:19:40.903Z,15.31
2022-08-27T01:22:45.372Z,15.26
2022-08-27T01:25:30.926Z,15.17
2022-08-27T01:28:16.553Z,15.23
2022-08-27T01:31:07.488Z,15.34
2022-08-27T01:34:18.950Z,15.35
2022-08-27T01:37:06.591Z,15.37
2022-08-27T01:39:53.490Z,15.35
2022-08-27T01:42:41.847Z,15.32
2022-08-27T01:45:30.226Z,15.20
2022-08-27T01:48:17.886Z,15.35
2022-08-27T01:51:03.516Z,15.34
2022-08-27T01:53:48.571Z,15.30
2022-08-27T01:56:33.772Z,15.26
2022-08-27T01:59:18.853Z,15.27
2022-08-27T02:02:04.990Z,15.24
2022-08-27T02:04:51.639Z,15.28
2022-08-27T02:07:39.119Z,15.10
2022-08-27T02:10:34.112Z,14.97
2022-08-27T02:13:19.412Z,14.90
2022-08-27T02:16:05.439Z,14.87
2022-08-27T02:18:50.536Z,14.80
2022-08-27T02:21:35.848Z,14.81
2022-08-27T02:24:22.750Z,14.90
2022-08-27T02:27:08.401Z,14.84
2022-08-27T02:29:54.482Z,14.72
2022-08-27T02:32:39.551Z,14.66
2022-08-27T02:35:25.440Z,14.65
2022-08-27T02:38:13.082Z,14.58
2022-08-27T02:40:58.482Z,14.52
2022-08-27T02:43:45.318Z,14.46
2022-08-27T02:46:31.398Z,14.33
2022-08-27T02:49:17.883Z,14.29
2022-08-27T02:52:03.776Z,14.31
2022-08-27T02:54:50.298Z,14.20
2022-08-27T02:57:36.413Z,14.25
2022-08-27T03:00:24.222Z,14.15
2022-08-27T03:03:10.655Z,14.13
2022-08-27T03:05:58.620Z,14.12
2022-08-27T03:08:52.163Z,14.18
2022-08-27T03:11:39.540Z,14.17
2022-08-27T03:14:24.546Z,14.20
2022-08-27T03:17:28.416Z,14.17
2022-08-27T03:20:13.975Z,14.10
2022-08-27T03:23:00.232Z,14.10
2022-08-27T03:25:51.342Z,14.08
2022-08-27T03:28:36.660Z,13.98
2022-08-27T03:31:27.363Z,13.94
2022-08-27T03:34:13.244Z,13.92
2022-08-27T03:37:00.246Z,13.89
2022-08-27T03:39:45.493Z,13.78
2022-08-27T03:42:30.750Z,13.78
2022-08-27T03:45:16.233Z,13.76
2022-08-27T03:48:01.535Z,13.73
2022-08-27T03:50:48.473Z,13.60
2022-08-27T03:53:34.813Z,13.66
2022-08-27T03:56:19.922Z,13.70
2022-08-27T03:59:06.674Z,13.68
2022-08-27T04:01:51.998Z,13.65
2022-08-27T04:04:37.146Z,13.64
2022-08-27T04:07:22.254Z,13.56
2022-08-27T04:10:09.529Z,13.60
2022-08-27T04:12:54.418Z,13.60
2022-08-27T04:15:49.697Z,13.64
2022-08-27T04:18:34.585Z,13.59
2022-08-27T04:21:20.402Z,13.68
2022-08-27T04:24:05.904Z,13.76
2022-08-27T04:26:51.677Z,13.77
2022-08-27T04:29:37.718Z,13.78
2022-08-27T04:32:27.397Z,13.77
2022-08-27T04:35:14.882Z,13.76
2022-08-27T04:38:00.109Z,13.72
2022-08-27T04:41:03.634Z,13.76
2022-08-27T04:43:58.120Z,13.74
2022-08-27T04:46:43.689Z,13.80
2022-08-27T04:49:35.652Z,13.76
2022-08-27T04:52:21.331Z,13.78
2022-08-27T04:55:07.279Z,13.76
2022-08-27T04:57:52.160Z,13.85
2022-08-27T05:00:45.172Z,13.87
2022-08-27T05:03:30.891Z,13.86
2022-08-27T05:06:17.047Z,13.83
2022-08-27T05:09:02.719Z,13.77
2022-08-27T05:11:47.956Z,13.81
2022-08-27T05:14:33.318Z,13.76
2022-08-27T05:17:18.723Z,13.80
2022-08-27T05:20:05.158Z,13.79
2022-08-27T05:22:50.224Z,13.69
2022-08-27T05:25:39.897Z,13.80
2022-08-27T05:28:28.029Z,13.75
2022-08-27T05:31:15.018Z,13.71
2022-08-27T05:34:00.953Z,13.67
2022-08-27T05:36:48.707Z,13.63
2022-08-27T05:39:34.539Z,13.55
2022-08-27T05:42:19.705Z,13.65
2022-08-27T05:45:05.423Z,13.71
2022-08-27T05:47:50.791Z,13.55
2022-08-27T05:50:36.085Z,13.53
2022-08-27T05:53:21.329Z,13.57
2022-08-27T05:56:13.362Z,13.53
2022-08-27T05:59:17.205Z,13.55
2022-08-27T06:02:03.097Z,13.47
2022-08-27T06:04:48.702Z,13.58
2022-08-27T06:07:34.990Z,13.58
2022-08-27T06:10:19.934Z,13.59
2022-08-27T06:13:05.198Z,13.60
2022-08-27T06:15:50.541Z,13.62
2022-08-27T06:18:38.422Z,13.70
2022-08-27T06:21:24.936Z,13.77
2022-08-27T06:24:14.950Z,13.83
2022-08-27T06:26:59.920Z,13.87
2022-08-27T06:29:45.500Z,13.94
2022-08-27T06:32:31.355Z,14.00
2022-08-27T06:35:16.421Z,14.11
2022-08-27T06:38:01.827Z,14.17
2022-08-27T06:40:46.870Z,14.19
2022-08-27T06:43:32.015Z,14.31
2022-08-27T06:46:18.867Z,14.40
2022-08-27T06:49:04.123Z,14.48
2022-08-27T06:51:49.481Z,14.43
2022-08-27T06:54:35.633Z,14.48
2022-08-27T06:57:21.305Z,14.61
2022-08-27T07:00:08.455Z,14.56
2022-08-27T07:02:53.722Z,14.69
2022-08-27T07:05:40.444Z,14.81
2022-08-27T07:08:25.949Z,14.83
2022-08-27T07:11:14.721Z,14.98
2022-08-27T07:14:00.748Z,15.12
2022-08-27T07:16:45.948Z,15.27
2022-08-27T07:19:33.717Z,15.34
2022-08-27T07:22:19.055Z,15.36
2022-08-27T07:25:04.372Z,15.32
2022-08-27T07:27:50.752Z,15.46
2022-08-27T07:30:37.569Z,15.59
2022-08-27T07:33:22.842Z,15.69
2022-08-27T07:36:09.056Z,15.80
2022-08-27T07:39:00.933Z,15.88
2022-08-27T07:42:05.525Z,15.99
2022-08-27T07:44:50.716Z,16.23
2022-08-27T07:47:35.971Z,16.37
2022-08-27T07:50:26.779Z,16.48
2022-08-27T07:53:11.643Z,16.72
2022-08-27T07:56:02.501Z,16.84
2022-08-27T07:58:47.673Z,17.04
2022-08-27T08:01:32.846Z,17.09
2022-08-27T08:04:20.274Z,17.41
2022-08-27T08:07:05.880Z,17.60
2022-08-27T08:09:51.119Z,17.75
2022-08-27T08:12:37.484Z,17.91
2022-08-27T08:15:22.578Z,18.06
2022-08-27T08:18:07.713Z,18.23
2022-08-27T08:20:58.489Z,18.37
2022-08-27T08:23:44.139Z,18.37
2022-08-27T08:26:29.668Z,18.58
2022-08-27T08:29:18.382Z,18.64
2022-08-27T08:32:06.578Z,18.76
2022-08-27T08:34:51.463Z,18.86
2022-08-27T08:37:37.863Z,18.95
2022-08-27T08:40:39.648Z,19.01
2022-08-27T08:43:51.467Z,19.10
2022-08-27T08:46:45.345Z,19.29
2022-08-27T08:49:30.634Z,19.52
2022-08-27T08:52:30.644Z,19.69
2022-08-27T08:55:40.365Z,19.72
2022-08-27T08:58:45.824Z,19.89
2022-08-27T09:01:31.255Z,19.90
2022-08-27T09:04:16.627Z,19.93
2022-08-27T09:07:46.139Z,20.02
2022-08-27T09:10:57.553Z,20.05
2022-08-27T09:13:53.315Z,20.10
2022-08-27T09:16:38.878Z,20.13
2022-08-27T09:19:24.842Z,20.23
2022-08-27T09:22:37.928Z,20.31
2022-08-27T09:25:33.496Z,20.35
2022-08-27T09:28:45.546Z,20.32
2022-08-27T09:31:36.578Z,20.38
2022-08-27T09:34:24.325Z,20.48
2022-08-27T09:37:33.876Z,20.62
2022-08-27T09:40:28.201Z,20.62
2022-08-27T09:43:16.918Z,20.73
2022-08-27T09:46:15.483Z,20.75
2022-08-27T09:49:12.550Z,20.77
2022-08-27T09:51:57.896Z,20.90
2022-08-27T09:54:47.173Z,20.88
2022-08-27T09:57:42.300Z,20.94
2022-08-27T10:00:39.851Z,20.93
2022-08-27T10:03:26.000Z,21.03
2022-08-27T10:06:13.343Z,21.28
2022-08-27T10:09:17.221Z,21.37
2022-08-27T10:12:10.514Z,21.44
2022-08-27T10:14:59.521Z,21.51
2022-08-27T10:17:56.294Z,21.74
2022-08-27T10:20:54.665Z,21.76
2022-08-27T10:24:15.330Z,21.98
2022-08-27T10:27:06.364Z,22.09
2022-08-27T10:30:36.000Z,22.19
2022-08-27T10:33:33.237Z,22.21
2022-08-27T10:36:59.689Z,22.25
2022-08-27T10:40:18.125Z,22.00
2022-08-27T10:43:34.046Z,21.97
2022-08-27T10:46:53.529Z,22.36
2022-08-27T10:50:05.413Z,22.66
2022-08-27T10:53:01.332Z,22.73
2022-08-27T10:55:52.433Z,22.46
2022-08-27T10:58:45.461Z,22.19
2022-08-27T11:01:53.965Z,22.07
2022-08-27T11:04:44.761Z,22.23
2022-08-27T11:07:44.858Z,22.57
2022-08-27T11:10:34.005Z,22.76
2022-08-27T11:13:25.257Z,22.87
2022-08-27T11:16:28.673Z,22.72
2022-08-27T11:19:36.060Z,22.57
2022-08-27T11:22:34.488Z,22.37
2022-08-27T11:25:22.280Z,22.82
2022-08-27T11:28:10.324Z,22.70
2022-08-27T11:31:21.368Z,23.05
2022-08-27T11:34:32.316Z,23.53
2022-08-27T11:37:35.070Z,23.96
2022-08-27T11:40:20.234Z,24.12
2022-08-27T11:43:13.801Z,23.91
2022-08-27T11:46:02.803Z,23.43
2022-08-27T11:48:58.314Z,23.19
2022-08-27T11:51:43.351Z,22.99
2022-08-27T11:54:46.547Z,23.11
2022-08-27T11:57:36.177Z,23.62
2022-08-27T12:00:33.904Z,24.31
2022-08-27T12:03:19.014Z,24.39
2022-08-27T12:06:17.817Z,24.27
2022-08-27T12:09:16.118Z,24.56
2022-08-27T12:12:20.433Z,24.81
2022-08-27T12:15:11.714Z,24.93
2022-08-27T12:18:17.754Z,24.68
2022-08-27T12:21:17.888Z,24.19
2022-08-27T12:24:35.260Z,23.95
2022-08-27T12:27:28.149Z,23.91
2022-08-27T12:30:28.281Z,24.65
2022-08-27T12:33:49.275Z,25.21
2022-08-27T12:36:35.282Z,25.66
2022-08-27T12:39:28.850Z,25.94
2022-08-27T12:42:19.043Z,26.26
2022-08-27T12:45:04.364Z,25.82
2022-08-27T12:47:50.601Z,25.44
2022-08-27T12:50:36.541Z,25.15
2022-08-27T12:53:31.039Z,25.08
2022-08-27T12:56:36.958Z,24.99
2022-08-27T12:59:51.177Z,25.18
2022-08-27T13:03:01.101Z,25.74
2022-08-27T13:05:49.469Z,26.14
2022-08-27T13:08:36.258Z,26.50
2022-08-27T13:11:27.587Z,26.70
2022-08-27T13:14:22.456Z,26.72
2022-08-27T13:17:11.587Z,26.91
2022-08-27T13:19:59.961Z,26.99
2022-08-27T13:22:45.495Z,26.90
2022-08-27T13:25:33.422Z,27.06
2022-08-27T13:28:22.413Z,27.34
2022-08-27T13:31:10.173Z,26.73
2022-08-27T13:33:59.725Z,26.15
2022-08-27T13:37:06.654Z,25.68
2022-08-27T13:39:56.525Z,25.37
2022-08-27T13:42:45.082Z,25.18
2022-08-27T13:45:31.504Z,25.08
2022-08-27T13:48:19.845Z,24.98
2022-08-27T13:51:10.307Z,25.00
2022-08-27T13:54:14.455Z,24.94
2022-08-27T13:57:08.243Z,24.85
2022-08-27T13:59:53.564Z,24.62
2022-08-27T14:02:40.451Z,24.54
2022-08-27T14:05:26.814Z,24.38
2022-08-27T14:08:17.723Z,24.36
2022-08-27T14:11:07.317Z,24.34
2022-08-27T14:13:53.999Z,24.76
2022-08-27T14:16:40.263Z,24.72
2022-08-27T14:19:36.590Z,25.30
2022-08-27T14:22:22.643Z,25.84
2022-08-27T14:25:09.248Z,26.11
2022-08-27T14:27:55.105Z,26.29
2022-08-27T14:30:40.434Z,25.98
2022-08-27T14:33:25.691Z,25.45
2022-08-27T14:36:11.174Z,25.19
2022-08-27T14:38:56.370Z,25.34
2022-08-27T14:41:41.749Z,25.24
2022-08-27T14:44:27.407Z,25.36
2022-08-27T14:47:16.357Z,25.95
2022-08-27T14:50:01.927Z,25.94
2022-08-27T14:52:47.295Z,26.16
2022-08-27T14:55:32.212Z,25.85
2022-08-27T14:58:17.600Z,25.44
2022-08-27T15:01:04.818Z,25.18
2022-08-27T15:03:51.235Z,24.97
2022-08-27T15:06:36.589Z,24.70
2022-08-27T15:09:23.025Z,24.52
2022-08-27T15:12:15.399Z,24.25
2022-08-27T15:15:12.520Z,24.21
2022-08-27T15:17:57.735Z,24.29
2022-08-27T15:20:43.373Z,24.22
2022-08-27T15:23:28.445Z,24.01
2022-08-27T15:26:13.724Z,24.16
2022-08-27T15:29:02.830Z,24.38
2022-08-27T15:31:51.165Z,24.45
2022-08-27T15:34:36.435Z,24.52
2022-08-27T15:37:21.932Z,24.43
2022-08-27T15:40:07.990Z,24.49
2022-08-27T15:42:59.598Z,24.54
2022-08-27T15:45:44.953Z,24.51
2022-08-27T15:48:30.445Z,24.51
2022-08-27T15:51:28.831Z,24.39
2022-08-27T15:54:14.182Z,24.25
2022-08-27T15:56:59.996Z,24.16
2022-08-27T15:59:45.766Z,23.95
2022-08-27T16:02:30.636Z,23.79
2022-08-27T16:05:16.487Z,23.82
2022-08-27T16:08:02.465Z,23.72
2022-08-27T16:10:47.840Z,23.56
2022-08-27T16:13:33.116Z,23.41
2022-08-27T16:16:24.186Z,23.30
2022-08-27T16:19:12.598Z,23.32
2022-08-27T16:22:00.749Z,23.35
2022-08-27T16:24:46.034Z,23.33
2022-08-27T16:27:31.185Z,23.34
2022-08-27T16:30:17.484Z,23.36
2022-08-27T16:33:03.080Z,23.34
2022-08-27T16:35:48.305Z,23.28
2022-08-27T16:38:33.591Z,23.24
2022-08-27T16:41:18.480Z,23.19
2022-08-27T16:44:05.014Z,23.15
2022-08-27T16:46:50.069Z,23.10
2022-08-27T16:49:54.088Z,23.08
2022-08-27T16:52:39.377Z,23.16
2022-08-27T16:55:24.652Z,23.11
2022-08-27T16:58:17.907Z,23.16
2022-08-27T17:01:07.630Z,23.13
2022-08-27T17:04:09.653Z,23.02
2022-08-27T17:06:58.357Z,22.90
2022-08-27T17:09:43.702Z,22.80
2022-08-27T17:12:29.665Z,22.68
2022-08-27T17:15:18.572Z,22.56
2022-08-27T17:18:04.324Z,22.39
2022-08-27T17:20:51.415Z,22.26
2022-08-27T17:23:40.790Z,22.18
2022-08-27T17:26:26.344Z,22.16
2022-08-27T17:29:11.714Z,22.14
2022-08-27T17:31:56.550Z,22.08
2022-08-27T17:34:41.774Z,21.97
2022-08-27T17:37:26.710Z,21.85
2022-08-27T17:40:12.136Z,21.76
2022-08-27T17:42:58.456Z,21.67
2022-08-27T17:45:49.037Z,21.71
2022-08-27T17:48:34.561Z,21.63
2022-08-27T17:51:20.931Z,21.59
2022-08-27T17:54:09.281Z,21.54
2022-08-27T17:56:54.538Z,21.39
2022-08-27T17:59:39.682Z,21.43
2022-08-27T18:02:29.962Z,21.31
2022-08-27T18:05:17.036Z,21.33
2022-08-27T18:08:02.521Z,21.28
2022-08-27T18:10:47.969Z,21.18
2022-08-27T18:13:37.106Z,21.20
2022-08-27T18:16:22.474Z,21.08
2022-08-27T18:19:08.773Z,20.88
2022-08-27T18:21:54.124Z,20.79
2022-08-27T18:24:39.301Z,20.81
2022-08-27T18:27:29.050Z,20.72
2022-08-27T18:30:14.666Z,20.63
2022-08-27T18:33:00.099Z,20.54
2022-08-27T18:35:45.741Z,20.51
2022-08-27T18:38:31.355Z,20.45
2022-08-27T18:41:18.845Z,20.33
2022-08-27T18:44:04.594Z,20.27
2022-08-27T18:47:03.151Z,20.24
2022-08-27T18:49:48.097Z,20.21
2022-08-27T18:52:33.423Z,20.11
2022-08-27T18:55:22.937Z,20.12
2022-08-27T18:58:08.218Z,20.00
2022-08-27T19:00:57.026Z,20.00
2022-08-27T19:03:45.868Z,19.85
2022-08-27T19:06:31.613Z,19.83
2022-08-27T19:09:18.056Z,19.70
2022-08-27T19:12:04.358Z,19.69
2022-08-27T19:14:49.692Z,19.62
2022-08-27T19:17:35.961Z,19.58
2022-08-27T19:20:21.670Z,19.48
2022-08-27T19:23:06.821Z,19.50
2022-08-27T19:25:52.939Z,19.49
2022-08-27T19:28:40.850Z,19.45
2022-08-27T19:31:25.880Z,19.38
2022-08-27T19:34:11.312Z,19.27
2022-08-27T19:36:58.652Z,19.19
2022-08-27T19:39:43.589Z,19.19
2022-08-27T19:42:29.346Z,19.14
2022-08-27T19:45:14.404Z,19.14
2022-08-27T19:47:59.937Z,19.10
2022-08-27T19:50:45.358Z,19.04
2022-08-27T19:53:30.222Z,18.95
2022-08-27T19:56:15.517Z,18.92
2022-08-27T19:59:14.523Z,18.91
2022-08-27T20:02:08.835Z,18.86
2022-08-27T20:05:16.308Z,18.77
2022-08-27T20:07:58.821Z,18.76
2022-08-27T20:10:44.477Z,18.70
2022-08-27T20:13:33.098Z,18.69
2022-08-27T20:16:18.369Z,18.66
2022-08-27T20:19:05.063Z,18.56
2022-08-27T20:21:50.399Z,18.55
2022-08-27T20:24:37.077Z,18.55
2022-08-27T20:27:22.307Z,18.50
2022-08-27T20:30:10.283Z,18.48
2022-08-27T20:32:55.750Z,18.47
2022-08-27T20:35:40.915Z,18.41
2022-08-27T20:38:26.174Z,18.31
2022-08-27T20:41:11.570Z,18.21
2022-08-27T20:43:57.072Z,18.24
2022-08-27T20:46:42.478Z,18.12
2022-08-27T20:49:35.428Z,18.16
2022-08-27T20:52:20.657Z,18.18
2022-08-27T20:55:06.883Z,18.09
2022-08-27T20:58:10.561Z,18.10
2022-08-27T21:00:56.057Z,18.03
2022-08-27T21:03:41.416Z,17.93
2022-08-27T21:06:26.774Z,17.92
2022-08-27T21:09:11.788Z,17.87
2022-08-27T21:11:57.532Z,17.75
2022-08-27T21:14:42.408Z,17.73
2022-08-27T21:17:28.681Z,17.73
2022-08-27T21:20:14.101Z,17.74
2022-08-27T21:23:00.067Z,17.73
2022-08-27T21:25:45.540Z,17.69
2022-08-27T21:28:31.097Z,17.60
2022-08-27T21:31:16.501Z,17.61
2022-08-27T21:34:01.865Z,17.55
2022-08-27T21:36:47.287Z,17.51
2022-08-27T21:39:34.248Z,17.45
2022-08-27T21:42:19.577Z,17.37
2022-08-27T21:45:05.659Z,17.29
2022-08-27T21:47:51.849Z,17.28
2022-08-27T21:50:37.509Z,17.10
2022-08-27T21:53:23.154Z,16.92
2022-08-27T21:56:08.605Z,16.83
2022-08-27T21:58:53.689Z,16.71
2022-08-27T22:01:39.529Z,16.64
2022-08-27T22:04:26.373Z,16.61
2022-08-27T22:07:15.197Z,16.58
2022-08-27T22:10:00.472Z,16.54
2022-08-27T22:12:45.737Z,16.47
2022-08-27T22:15:31.399Z,16.43
2022-08-27T22:18:17.444Z,16.43
2022-08-27T22:21:12.715Z,16.37
2022-08-27T22:24:02.498Z,16.35
2022-08-27T22:26:47.859Z,16.28
2022-08-27T22:29:33.119Z,16.24
2022-08-27T22:32:19.070Z,16.19
2022-08-27T22:35:05.041Z,16.08
2022-08-27T22:37:50.431Z,16.12
2022-08-27T22:40:36.197Z,16.00
2022-08-27T22:43:22.485Z,16.07
2022-08-27T22:46:08.021Z,16.05
2022-08-27T22:48:52.829Z,15.95
2022-08-27T22:51:38.060Z,15.81
2022-08-27T22:54:23.368Z,15.85
2022-08-27T22:57:10.592Z,15.85
2022-08-27T22:59:55.883Z,15.79
2022-08-27T23:02:41.061Z,15.77
2022-08-27T23:05:26.822Z,15.71
2022-08-27T23:08:14.292Z,15.59
2022-08-27T23:10:59.720Z,15.56
2022-08-27T23:13:45.316Z,15.56
2022-08-27T23:16:31.666Z,15.62
2022-08-27T23:19:17.610Z,15.62
2022-08-27T23:22:02.524Z,15.53
2022-08-27T23:25:11.945Z,15.50
2022-08-27T23:27:59.676Z,15.23
2022-08-27T23:30:45.661Z,15.15
2022-08-27T23:33:30.838Z,15.17
2022-08-27T23:36:16.069Z,15.04
2022-08-27T23:39:01.117Z,15.06
2022-08-27T23:41:46.688Z,14.92
2022-08-27T23:44:32.128Z,14.91
2022-08-27T23:47:17.787Z,14.78
2022-08-27T23:50:04.857Z,14.92
2022-08-27T23:52:50.076Z,15.00
2022-08-27T23:55:36.462Z,14.95
2022-08-27T23:58:21.481Z,14.90
